Time;durP1;ratioP1;P1;durP2;ratioP2;P2;SDS_P1;SDS_P2;PMS_P1;PMS_P2;Temp;Humidity;BMP_temperature;BMP_pressure;BME280_temperature;BME280_humidity;BME280_pressure;Samples;Min_cycle;Max_cycle;Signal;HPM_P1;HPM_P2
2023/08/29 00:00:07;;;;;;;;;3.00;3.00;;;;;;;;5081600;28;45299;-73
2023/08/29 00:02:32;;;;;;;;;4.00;4.00;;;;;;;;5081622;28;45477;-73
2023/08/29 00:04:58;;;;;;;;;7.00;4.67;;;;;;;;5081653;28;45314;-72
2023/08/29 00:07:23;;;;;;;;;3.00;3.00;;;;;;;;5081307;28;45410;-73
2023/08/29 00:09:48;;;;;;;;;4.67;4.00;;;;;;;;5081489;28;45310;-73
2023/08/29 00:12:14;;;;;;;;;5.00;5.00;;;;;;;;5081670;28;45257;-73
2023/08/29 00:14:39;;;;;;;;;5.00;3.33;;;;;;;;5081365;28;45374;-73
2023/08/29 00:17:05;;;;;;;;;4.67;4.67;;;;;;;;5081245;28;45914;-73
2023/08/29 00:19:30;;;;;;;;;6.33;6.33;;;;;;;;5080916;28;45362;-73
2023/08/29 00:21:55;;;;;;;;;5.00;4.00;;;;;;;;5063176;28;45238;-73
2023/08/29 00:24:21;;;;;;;;;3.00;3.00;;;;;;;;5063105;28;46531;-73
2023/08/29 00:26:46;;;;;;;;;4.00;4.00;;;;;;;;5080890;28;45383;-73
2023/08/29 00:29:11;;;;;;;;;5.00;5.00;;;;;;;;5088578;27;45356;-73
2023/08/29 00:31:36;;;;;;;;;5.00;5.00;;;;;;;;5083312;27;45299;-73
2023/08/29 00:34:01;;;;;;;;;5.00;5.00;;;;;;;;5101674;27;45280;-73
2023/08/29 00:36:27;;;;;;;;;4.33;4.33;;;;;;;;5082861;27;48611;-73
2023/08/29 00:38:52;;;;;;;;;5.00;5.00;;;;;;;;5101507;27;45291;-73
2023/08/29 00:41:17;;;;;;;;;3.00;3.00;;;;;;;;5101754;27;45306;-73
2023/08/29 00:43:42;;;;;;;;;3.67;3.67;;;;;;;;5082620;27;47330;-73
2023/08/29 00:46:07;;;;;;;;;5.00;5.00;;;;;;;;5101109;27;46221;-73
2023/08/29 00:48:33;;;;;;;;;3.00;3.00;;;;;;;;5090178;27;45383;-73
2023/08/29 00:50:58;;;;;;;;;3.33;3.33;;;;;;;;5080097;28;45387;-73
2023/08/29 00:53:25;;;;;;;;;2.00;2.00;;;;;;;;5079725;28;45357;-73
2023/08/29 00:55:50;;;;;;;;;4.00;4.00;;;;;;;;5080536;28;46264;-73
2023/08/29 00:58:15;;;;;;;;;4.00;4.00;;;;;;;;5080595;28;45240;-73
2023/08/29 01:00:41;;;;;;;;;4.00;4.00;;;;;;;;5080915;28;45264;-73
2023/08/29 01:03:06;;;;;;;;;3.00;3.00;;;;;;;;5062196;28;46866;-73
2023/08/29 01:05:31;;;;;;;;;4.00;4.00;;;;;;;;5080494;28;45247;-73
2023/08/29 01:07:58;;;;;;;;;3.00;3.00;;;;;;;;5062385;28;46211;-73
2023/08/29 01:10:42;;;;;;;;;4.67;4.67;;;;;;;;5062563;28;45284;-73
2023/08/29 01:13:11;;;;;;;;;4.00;4.00;;;;;;;;5080386;28;45635;-73
2023/08/29 01:15:36;;;;;;;;;5.67;5.00;;;;;;;;5080339;28;45344;-73
2023/08/29 01:18:03;;;;;;;;;5.00;5.00;;;;;;;;5080245;28;45352;-73
2023/08/29 01:20:31;;;;;;;;;4.00;4.00;;;;;;;;5079564;28;45280;-73
2023/08/29 01:23:02;;;;;;;;;6.00;5.00;;;;;;;;5080248;28;45465;-73
2023/08/29 01:25:34;;;;;;;;;6.00;6.00;;;;;;;;5080260;28;46256;-73
2023/08/29 01:28:00;;;;;;;;;5.00;5.00;;;;;;;;5080085;28;45303;-73
2023/08/29 01:30:26;;;;;;;;;2.00;2.00;;;;;;;;5098247;27;45298;-73
2023/08/29 01:32:52;;;;;;;;;4.67;4.67;;;;;;;;5100609;27;45430;-73
2023/08/29 01:35:17;;;;;;;;;6.00;5.67;;;;;;;;5100602;27;45401;-73
2023/08/29 01:37:42;;;;;;;;;4.00;4.00;;;;;;;;5100705;27;45406;-73
2023/08/29 01:40:08;;;;;;;;;4.00;4.00;;;;;;;;5082448;27;45346;-73
2023/08/29 01:42:33;;;;;;;;;3.00;3.00;;;;;;;;5100410;27;45411;-73
2023/08/29 01:44:58;;;;;;;;;3.33;3.00;;;;;;;;5100375;27;45308;-73
2023/08/29 01:47:23;;;;;;;;;1.00;1.00;;;;;;;;5082029;27;45467;-73
2023/08/29 01:49:49;;;;;;;;;7.33;5.00;;;;;;;;5081497;27;45343;-73
2023/08/29 01:52:14;;;;;;;;;4.00;4.00;;;;;;;;5100419;27;45334;-73
2023/08/29 01:54:40;;;;;;;;;3.67;3.67;;;;;;;;5100218;27;46196;-73
2023/08/29 01:57:06;;;;;;;;;5.00;3.67;;;;;;;;5100428;27;45267;-73
2023/08/29 01:59:32;;;;;;;;;6.00;4.33;;;;;;;;5100209;27;45330;-73
2023/08/29 02:01:59;;;;;;;;;4.00;4.00;;;;;;;;5100190;27;45320;-73
2023/08/29 02:04:24;;;;;;;;;5.00;5.00;;;;;;;;5100326;27;45377;-73
2023/08/29 02:06:49;;;;;;;;;6.00;5.00;;;;;;;;5100074;27;45330;-73
2023/08/29 02:09:15;;;;;;;;;4.00;4.00;;;;;;;;5100265;27;45294;-73
2023/08/29 02:11:40;;;;;;;;;8.00;6.67;;;;;;;;5100180;27;45332;-72
2023/08/29 02:14:05;;;;;;;;;4.67;4.67;;;;;;;;5099688;27;46596;-73
2023/08/29 02:16:31;;;;;;;;;4.00;4.00;;;;;;;;5081634;27;45368;-73
2023/08/29 02:18:56;;;;;;;;;6.33;6.33;;;;;;;;5081912;27;45320;-73
2023/08/29 02:21:22;;;;;;;;;5.00;4.00;;;;;;;;5099919;27;45278;-73
2023/08/29 02:23:47;;;;;;;;;3.33;3.33;;;;;;;;5100026;27;45259;-73
2023/08/29 02:26:12;;;;;;;;;4.00;4.00;;;;;;;;5081559;27;45637;-73
2023/08/29 02:28:38;;;;;;;;;3.33;3.00;;;;;;;;5096936;27;45411;-73
2023/08/29 02:31:07;;;;;;;;;5.67;5.67;;;;;;;;5061272;28;47211;-73
2023/08/29 02:33:33;;;;;;;;;5.00;5.00;;;;;;;;5079368;28;46307;-73
2023/08/29 02:35:58;;;;;;;;;4.00;4.00;;;;;;;;5061099;28;46092;-73
2023/08/29 02:38:24;;;;;;;;;5.00;3.67;;;;;;;;5079427;28;45318;-73
2023/08/29 02:40:49;;;;;;;;;5.67;4.67;;;;;;;;5079436;28;45417;-73
2023/08/29 02:43:14;;;;;;;;;5.67;5.33;;;;;;;;5060778;28;47633;-73
2023/08/29 02:45:39;;;;;;;;;4.67;4.67;;;;;;;;5079294;28;45348;-73
2023/08/29 02:48:05;;;;;;;;;5.00;4.67;;;;;;;;5079548;28;45317;-73
2023/08/29 02:50:30;;;;;;;;;5.67;5.67;;;;;;;;5078950;28;45424;-73
2023/08/29 02:52:56;;;;;;;;;3.00;3.00;;;;;;;;5078945;28;46211;-73
2023/08/29 02:55:21;;;;;;;;;5.67;4.67;;;;;;;;5079080;28;45363;-73
2023/08/29 02:57:46;;;;;;;;;4.00;4.00;;;;;;;;5078598;28;45485;-73
2023/08/29 03:00:12;;;;;;;;;5.00;5.00;;;;;;;;5080414;28;45344;-73
2023/08/29 03:02:37;;;;;;;;;5.00;4.00;;;;;;;;5082549;28;45831;-73
2023/08/29 03:05:02;;;;;;;;;4.00;4.00;;;;;;;;5082703;28;45346;-73
2023/08/29 03:07:28;;;;;;;;;4.33;4.00;;;;;;;;5082617;28;45248;-73
2023/08/29 03:09:53;;;;;;;;;7.67;5.00;;;;;;;;5082468;28;45240;-73
2023/08/29 03:12:18;;;;;;;;;6.00;6.00;;;;;;;;5064234;28;48305;-73
2023/08/29 03:14:43;;;;;;;;;4.67;4.67;;;;;;;;5082463;28;45330;-73
2023/08/29 03:17:08;;;;;;;;;6.00;5.67;;;;;;;;5064532;28;45213;-73
2023/08/29 03:19:34;;;;;;;;;7.67;6.00;;;;;;;;5082461;28;45382;-73
2023/08/29 03:21:59;;;;;;;;;5.33;5.33;;;;;;;;5082097;28;45279;-73
2023/08/29 03:24:24;;;;;;;;;6.00;6.00;;;;;;;;5082447;28;45329;-73
2023/08/29 03:26:50;;;;;;;;;6.67;6.67;;;;;;;;5082529;28;45265;-73
2023/08/29 03:29:15;;;;;;;;;5.67;5.00;;;;;;;;5071670;27;46097;-73
2023/08/29 03:31:41;;;;;;;;;6.67;6.67;;;;;;;;5102661;27;45383;-73
2023/08/29 03:34:06;;;;;;;;;4.67;4.33;;;;;;;;5102726;27;45310;-73
2023/08/29 03:36:31;;;;;;;;;4.00;4.00;;;;;;;;5102662;27;45265;-73
2023/08/29 03:38:57;;;;;;;;;6.00;6.00;;;;;;;;5102558;27;45319;-73
2023/08/29 03:41:23;;;;;;;;;6.33;6.33;;;;;;;;5102310;27;45927;-73
2023/08/29 03:43:48;;;;;;;;;5.00;5.00;;;;;;;;5101949;27;45290;-73
2023/08/29 03:46:13;;;;;;;;;7.33;6.33;;;;;;;;5084106;27;45334;-73
2023/08/29 03:48:40;;;;;;;;;7.67;5.67;;;;;;;;5083994;27;46217;-73
2023/08/29 03:51:08;;;;;;;;;6.67;6.67;;;;;;;;5083737;27;47265;-72
2023/08/29 03:53:34;;;;;;;;;5.33;5.33;;;;;;;;5102380;27;45357;-73
2023/08/29 03:56:02;;;;;;;;;5.67;5.67;;;;;;;;5083733;27;45341;-73
2023/08/29 03:58:27;;;;;;;;;6.00;6.00;;;;;;;;5102007;27;45290;-73
2023/08/29 04:00:52;;;;;;;;;4.00;4.00;;;;;;;;5102147;27;46363;-73
2023/08/29 04:03:18;;;;;;;;;7.33;6.33;;;;;;;;5102145;27;45366;-73
2023/08/29 04:05:43;;;;;;;;;7.00;6.00;;;;;;;;5102149;27;45288;-73
2023/08/29 04:08:10;;;;;;;;;6.00;6.00;;;;;;;;5083781;27;47485;-73
2023/08/29 04:10:39;;;;;;;;;9.00;9.00;;;;;;;;5083350;27;47410;-73
2023/08/29 04:13:05;;;;;;;;;8.00;8.00;;;;;;;;5101326;27;45332;-73
2023/08/29 04:15:30;;;;;;;;;6.33;6.33;;;;;;;;5101982;27;45366;-73
2023/08/29 04:17:56;;;;;;;;;7.67;7.33;;;;;;;;5101981;27;45483;-73
2023/08/29 04:20:21;;;;;;;;;6.33;5.33;;;;;;;;5083225;27;48409;-72
2023/08/29 04:22:46;;;;;;;;;7.33;7.33;;;;;;;;5083291;27;45334;-73
2023/08/29 04:25:12;;;;;;;;;7.00;7.00;;;;;;;;5083418;27;45330;-73
2023/08/29 04:27:38;;;;;;;;;7.33;7.33;;;;;;;;5101463;27;45154;-73
2023/08/29 04:30:03;;;;;;;;;8.67;8.67;;;;;;;;5086584;27;45530;-73
2023/08/29 04:32:34;;;;;;;;;7.67;7.00;;;;;;;;5081208;28;45324;-73
2023/08/29 04:34:59;;;;;;;;;10.00;8.00;;;;;;;;5081358;28;45485;-73
2023/08/29 04:37:24;;;;;;;;;6.00;6.00;;;;;;;;5080972;28;45288;-73
2023/08/29 04:39:49;;;;;;;;;7.00;7.00;;;;;;;;5062692;28;48165;-72
2023/08/29 04:42:14;;;;;;;;;8.00;8.00;;;;;;;;5059121;28;45360;-73
2023/08/29 04:44:39;;;;;;;;;8.00;8.00;;;;;;;;5060876;28;45225;-73
2023/08/29 04:47:05;;;;;;;;;10.33;9.67;;;;;;;;5060722;28;45492;-73
2023/08/29 04:49:30;;;;;;;;;10.33;7.67;;;;;;;;5060558;28;45222;-73
2023/08/29 04:51:55;;;;;;;;;9.67;9.00;;;;;;;;5060552;28;45473;-73
2023/08/29 04:54:20;;;;;;;;;7.67;7.67;;;;;;;;5059288;28;45335;-73
2023/08/29 04:56:46;;;;;;;;;8.33;8.00;;;;;;;;5060557;28;45152;-73
2023/08/29 04:59:11;;;;;;;;;7.00;7.00;;;;;;;;5058736;28;47015;-73
2023/08/29 05:01:36;;;;;;;;;8.33;8.33;;;;;;;;5060318;28;45289;-73
2023/08/29 05:04:02;;;;;;;;;10.33;9.33;;;;;;;;5059887;28;45345;-73
2023/08/29 05:06:27;;;;;;;;;13.00;11.67;;;;;;;;5059762;28;45474;-73
2023/08/29 05:08:52;;;;;;;;;9.00;9.00;;;;;;;;5060357;28;45286;-73
2023/08/29 05:11:18;;;;;;;;;10.00;9.67;;;;;;;;5060219;28;45258;-73
2023/08/29 05:13:43;;;;;;;;;10.67;7.67;;;;;;;;5060449;28;45382;-73
2023/08/29 05:16:08;;;;;;;;;9.00;8.00;;;;;;;;5060314;28;45366;-73
2023/08/29 05:18:33;;;;;;;;;12.00;10.33;;;;;;;;5060179;28;45457;-74
2023/08/29 05:20:59;;;;;;;;;10.67;9.00;;;;;;;;5058798;28;45268;-73
2023/08/29 05:23:24;;;;;;;;;11.33;10.33;;;;;;;;5057729;28;45330;-73
2023/08/29 05:25:49;;;;;;;;;11.67;11.33;;;;;;;;5060094;28;45532;-73
2023/08/29 05:28:15;;;;;;;;;11.00;11.00;;;;;;;;5059881;28;46162;-72
2023/08/29 05:30:40;;;;;;;;;8.00;8.00;;;;;;;;5078704;28;45285;-73
2023/08/29 05:33:05;;;;;;;;;8.67;8.00;;;;;;;;5065557;28;45223;-73
2023/08/29 05:35:30;;;;;;;;;12.67;11.00;;;;;;;;5038034;28;46148;-73
2023/08/29 05:37:55;;;;;;;;;10.00;10.00;;;;;;;;5040322;28;46053;-73
2023/08/29 05:40:21;;;;;;;;;9.33;9.33;;;;;;;;5048562;28;45288;-74
2023/08/29 05:42:46;;;;;;;;;11.00;10.00;;;;;;;;5052180;28;45347;-73
2023/08/29 05:45:11;;;;;;;;;11.67;10.67;;;;;;;;5063992;28;45603;-73
2023/08/29 05:47:36;;;;;;;;;11.33;9.33;;;;;;;;5079990;28;45992;-73
2023/08/29 05:50:02;;;;;;;;;8.67;8.67;;;;;;;;5079886;28;45366;-73
2023/08/29 05:52:27;;;;;;;;;11.00;10.00;;;;;;;;5061590;28;45424;-74
2023/08/29 05:54:52;;;;;;;;;12.00;10.67;;;;;;;;5061474;28;45801;-74
2023/08/29 05:57:17;;;;;;;;;12.33;11.00;;;;;;;;5061613;28;47139;-74
2023/08/29 05:59:42;;;;;;;;;10.00;9.67;;;;;;;;5079704;28;45332;-74
2023/08/29 06:02:07;;;;;;;;;11.67;11.33;;;;;;;;5080210;28;45280;-74
2023/08/29 06:04:33;;;;;;;;;11.67;11.67;;;;;;;;5061530;28;45893;-74
2023/08/29 06:06:58;;;;;;;;;12.00;12.00;;;;;;;;5079709;28;46004;-74
2023/08/29 06:09:23;;;;;;;;;10.00;10.00;;;;;;;;5079858;28;45256;-75
2023/08/29 06:11:49;;;;;;;;;11.00;11.00;;;;;;;;5079768;28;45237;-73
2023/08/29 06:14:14;;;;;;;;;14.67;14.00;;;;;;;;5079590;28;45256;-74
2023/08/29 06:16:39;;;;;;;;;10.00;10.00;;;;;;;;5079749;28;45300;-75
2023/08/29 06:19:05;;;;;;;;;14.33;11.00;;;;;;;;5061430;28;45970;-75
2023/08/29 06:21:30;;;;;;;;;13.00;12.00;;;;;;;;5060921;28;45360;-74
2023/08/29 06:23:55;;;;;;;;;14.33;13.00;;;;;;;;5061266;28;47062;-74
2023/08/29 06:26:21;;;;;;;;;11.33;10.67;;;;;;;;5079589;28;46184;-75
2023/08/29 06:28:47;;;;;;;;;13.00;13.00;;;;;;;;5083372;27;45355;-75
2023/08/29 06:31:12;;;;;;;;;12.67;11.33;;;;;;;;5081643;27;45311;-74
2023/08/29 06:33:38;;;;;;;;;12.33;12.33;;;;;;;;5099989;27;45228;-75
2023/08/29 06:36:03;;;;;;;;;11.33;11.00;;;;;;;;5102895;27;45517;-74
2023/08/29 06:38:29;;;;;;;;;13.00;13.00;;;;;;;;5103382;27;45301;-74
2023/08/29 06:40:55;;;;;;;;;23.67;21.67;;;;;;;;5103616;27;45244;-74
2023/08/29 06:43:20;;;;;;;;;22.67;21.00;;;;;;;;5102918;27;45274;-74
2023/08/29 06:45:45;;;;;;;;;14.67;14.67;;;;;;;;5074910;27;46392;-74
2023/08/29 06:48:11;;;;;;;;;21.00;19.00;;;;;;;;5062127;28;45252;-75
2023/08/29 06:50:36;;;;;;;;;20.00;20.00;;;;;;;;5044132;28;45488;-74
2023/08/29 06:53:01;;;;;;;;;16.67;16.00;;;;;;;;5062531;28;45382;-74
2023/08/29 06:55:27;;;;;;;;;17.67;15.33;;;;;;;;5062011;28;46026;-74
2023/08/29 06:57:52;;;;;;;;;17.00;17.00;;;;;;;;5043983;28;45818;-74
2023/08/29 07:00:19;;;;;;;;;16.33;15.33;;;;;;;;5062476;28;45318;-74
2023/08/29 07:02:45;;;;;;;;;15.00;13.67;;;;;;;;5042968;28;46952;-74
2023/08/29 07:05:10;;;;;;;;;18.00;18.00;;;;;;;;5061080;28;45304;-74
2023/08/29 07:07:36;;;;;;;;;15.67;14.67;;;;;;;;5043962;28;45424;-75
2023/08/29 07:10:02;;;;;;;;;18.67;18.33;;;;;;;;5061803;28;45328;-76
2023/08/29 07:12:27;;;;;;;;;18.33;16.00;;;;;;;;5061784;28;45230;-74
2023/08/29 07:14:53;;;;;;;;;19.33;17.67;;;;;;;;5062009;28;45266;-74
2023/08/29 07:17:18;;;;;;;;;13.33;13.00;;;;;;;;5062254;28;45381;-75
2023/08/29 07:19:43;;;;;;;;;16.67;15.00;;;;;;;;5044311;28;45391;-75
2023/08/29 07:22:08;;;;;;;;;18.00;17.67;;;;;;;;5069049;28;45341;-75
2023/08/29 07:24:33;;;;;;;;;17.00;16.00;;;;;;;;5082294;28;45356;-74
2023/08/29 07:26:59;;;;;;;;;16.33;16.33;;;;;;;;5082289;28;45333;-74
2023/08/29 07:29:24;;;;;;;;;16.67;15.33;;;;;;;;5063748;28;45371;-74
2023/08/29 07:31:49;;;;;;;;;17.00;14.67;;;;;;;;5063974;28;46964;-74
2023/08/29 07:34:15;;;;;;;;;16.00;15.33;;;;;;;;5082063;28;46430;-74
2023/08/29 07:36:41;;;;;;;;;16.00;15.67;;;;;;;;5082041;28;45351;-75
2023/08/29 07:39:06;;;;;;;;;18.33;17.67;;;;;;;;5082201;28;45638;-74
2023/08/29 07:41:31;;;;;;;;;16.00;15.00;;;;;;;;5063644;28;46408;-74
2023/08/29 07:43:56;;;;;;;;;21.67;16.33;;;;;;;;5081652;28;45373;-73
2023/08/29 07:46:22;;;;;;;;;15.67;15.33;;;;;;;;5080985;28;45307;-73
2023/08/29 07:48:49;;;;;;;;;14.67;14.33;;;;;;;;5081863;28;45339;-74
2023/08/29 07:51:15;;;;;;;;;13.67;13.67;;;;;;;;5081628;28;46046;-74
2023/08/29 07:53:40;;;;;;;;;13.00;12.00;;;;;;;;5063407;28;47365;-73
2023/08/29 07:56:05;;;;;;;;;14.00;12.67;;;;;;;;5081608;28;45294;-72
2023/08/29 07:58:30;;;;;;;;;15.00;14.67;;;;;;;;5081774;28;45576;-74
2023/08/29 08:00:55;;;;;;;;;13.67;12.67;;;;;;;;5081670;28;45375;-72
2023/08/29 08:03:20;;;;;;;;;14.00;14.00;;;;;;;;5081541;28;45337;-74
2023/08/29 08:05:46;;;;;;;;;14.00;12.67;;;;;;;;5081623;28;45261;-74
2023/08/29 08:08:11;;;;;;;;;12.00;11.33;;;;;;;;5063471;28;45346;-74
2023/08/29 08:10:36;;;;;;;;;13.67;13.67;;;;;;;;5081344;28;45174;-74
2023/08/29 08:13:03;;;;;;;;;16.00;14.67;;;;;;;;5062932;28;47320;-73
2023/08/29 08:15:28;;;;;;;;;11.33;11.33;;;;;;;;5081256;28;45347;-74
2023/08/29 08:17:54;;;;;;;;;11.33;11.33;;;;;;;;5081555;28;45281;-75
2023/08/29 08:20:19;;;;;;;;;8.67;8.67;;;;;;;;5081126;28;45604;-74
2023/08/29 08:22:44;;;;;;;;;10.00;9.67;;;;;;;;5081369;28;46018;-75
2023/08/29 08:25:10;;;;;;;;;13.00;11.00;;;;;;;;5081526;28;45319;-73
2023/08/29 08:27:36;;;;;;;;;8.33;8.33;;;;;;;;5081200;28;45286;-74
2023/08/29 08:30:01;;;;;;;;;10.00;10.00;;;;;;;;5095745;27;45669;-74
2023/08/29 08:32:27;;;;;;;;;5.00;5.00;;;;;;;;5101611;27;46344;-73
2023/08/29 08:34:53;;;;;;;;;9.00;9.00;;;;;;;;5101728;27;45413;-72
2023/08/29 08:37:19;;;;;;;;;9.67;9.33;;;;;;;;5101462;27;45721;-74
2023/08/29 08:39:45;;;;;;;;;11.33;10.33;;;;;;;;5101411;27;45298;-75
2023/08/29 08:42:13;;;;;;;;;8.67;7.67;;;;;;;;5082871;27;47263;-75
2023/08/29 08:44:39;;;;;;;;;6.67;6.67;;;;;;;;5101306;27;45460;-74
2023/08/29 08:47:05;;;;;;;;;6.00;6.00;;;;;;;;5083126;27;45570;-75
2023/08/29 08:49:30;;;;;;;;;6.00;6.00;;;;;;;;5101292;27;45310;-74
2023/08/29 08:51:57;;;;;;;;;5.67;5.67;;;;;;;;5101193;27;45353;-74
2023/08/29 08:54:23;;;;;;;;;7.00;6.00;;;;;;;;5101235;27;45383;-73
2023/08/29 08:56:48;;;;;;;;;6.00;6.00;;;;;;;;5082957;27;45269;-74
2023/08/29 08:59:14;;;;;;;;;5.67;5.33;;;;;;;;5100988;27;45272;-73
2023/08/29 09:01:39;;;;;;;;;8.00;7.67;;;;;;;;5101288;27;46316;-73
2023/08/29 09:04:05;;;;;;;;;9.67;8.00;;;;;;;;5101029;27;45421;-73
2023/08/29 09:06:30;;;;;;;;;10.00;9.33;;;;;;;;5101232;27;45551;-74
2023/08/29 09:08:56;;;;;;;;;7.33;7.33;;;;;;;;5101024;27;45232;-73
2023/08/29 09:11:21;;;;;;;;;9.00;9.00;;;;;;;;5100982;27;46394;-74
2023/08/29 09:13:49;;;;;;;;;7.00;7.00;;;;;;;;5100920;27;45216;-73
2023/08/29 09:16:16;;;;;;;;;8.00;8.00;;;;;;;;5100890;27;45469;-74
2023/08/29 09:18:45;;;;;;;;;4.33;4.00;;;;;;;;5101067;27;45649;-74
2023/08/29 09:21:16;;;;;;;;;5.33;5.33;;;;;;;;5100657;27;46407;-74
2023/08/29 09:23:42;;;;;;;;;4.33;4.00;;;;;;;;5082266;27;45923;-76
2023/08/29 09:26:09;;;;;;;;;4.00;4.00;;;;;;;;5101048;27;45412;-73
2023/08/29 09:28:35;;;;;;;;;5.00;5.00;;;;;;;;5079558;27;45999;-75
2023/08/29 09:31:07;;;;;;;;;4.33;4.33;;;;;;;;5080212;28;45208;-73
2023/08/29 09:33:33;;;;;;;;;6.00;6.00;;;;;;;;5080214;28;45283;-73
2023/08/29 09:36:02;;;;;;;;;6.33;4.33;;;;;;;;5080371;28;45340;-73
2023/08/29 09:38:28;;;;;;;;;5.00;5.00;;;;;;;;5080256;28;45270;-73
2023/08/29 09:40:55;;;;;;;;;8.33;5.33;;;;;;;;5079714;28;46041;-73
2023/08/29 09:43:20;;;;;;;;;7.00;5.67;;;;;;;;5054646;28;45374;-72
2023/08/29 09:45:52;;;;;;;;;5.00;5.00;;;;;;;;5053726;28;45261;-74
2023/08/29 09:48:20;;;;;;;;;4.67;4.33;;;;;;;;5075438;28;45379;-74
2023/08/29 09:50:46;;;;;;;;;6.00;6.00;;;;;;;;5073696;28;45421;-73
2023/08/29 09:53:18;;;;;;;;;9.00;7.00;;;;;;;;5080102;28;45386;-73
2023/08/29 09:55:44;;;;;;;;;5.67;5.67;;;;;;;;5079903;28;45300;-73
2023/08/29 09:58:10;;;;;;;;;4.33;4.33;;;;;;;;5064295;28;45460;-73
2023/08/29 10:00:40;;;;;;;;;4.00;4.00;;;;;;;;5059931;28;45497;-73
2023/08/29 10:03:09;;;;;;;;;5.00;4.00;;;;;;;;5059886;28;45153;-73
2023/08/29 10:05:36;;;;;;;;;3.50;3.25;;;;;;;;5059535;28;45296;-73
2023/08/29 10:08:07;;;;;;;;;6.00;5.00;;;;;;;;5059542;28;45509;-74
2023/08/29 10:10:34;;;;;;;;;6.67;6.67;;;;;;;;5040523;28;48096;-73
2023/08/29 10:13:00;;;;;;;;;6.00;6.00;;;;;;;;5060173;28;45284;-73
2023/08/29 10:15:25;;;;;;;;;6.67;6.67;;;;;;;;5059849;28;45330;-73
2023/08/29 10:17:51;;;;;;;;;6.00;6.00;;;;;;;;5060122;28;45590;-75
2023/08/29 10:20:17;;;;;;;;;4.25;4.25;;;;;;;;5059296;28;45371;-74
2023/08/29 10:22:45;;;;;;;;;5.00;5.00;;;;;;;;5041371;28;45334;-75
2023/08/29 10:25:11;;;;;;;;;5.00;5.00;;;;;;;;5060971;28;45248;-75
2023/08/29 10:27:36;;;;;;;;;4.00;4.00;;;;;;;;5059348;28;45264;-74
2023/08/29 10:30:02;;;;;;;;;4.00;4.00;;;;;;;;5071035;27;47320;-77
2023/08/29 10:32:28;;;;;;;;;5.00;5.00;;;;;;;;5101352;27;45262;-74
2023/08/29 10:34:53;;;;;;;;;4.50;4.50;;;;;;;;5100113;27;45411;-74
2023/08/29 10:37:19;;;;;;;;;6.00;5.00;;;;;;;;5099740;27;45379;-76
2023/08/29 10:39:44;;;;;;;;;5.25;5.25;;;;;;;;5099827;27;45373;-77
2023/08/29 10:42:12;;;;;;;;;5.00;5.00;;;;;;;;5099661;27;45356;-75
2023/08/29 10:44:41;;;;;;;;;5.25;4.00;;;;;;;;5081320;27;45374;-75
2023/08/29 10:47:16;;;;;;;;;6.25;5.25;;;;;;;;5099609;27;45449;-75
2023/08/29 10:49:44;;;;;;;;;4.00;4.00;;;;;;;;5081221;27;47609;-73
2023/08/29 10:52:10;;;;;;;;;5.00;4.00;;;;;;;;5084407;27;45293;-73
2023/08/29 10:54:36;;;;;;;;;3.75;3.75;;;;;;;;5068415;28;45402;-73
2023/08/29 10:57:01;;;;;;;;;4.75;4.75;;;;;;;;5060647;28;47291;-74
2023/08/29 10:59:29;;;;;;;;;8.00;7.25;;;;;;;;5078302;28;45458;-73
2023/08/29 11:02:13;;;;;;;;;4.00;3.00;;;;;;;;5079072;28;45327;-73
2023/08/29 11:04:39;;;;;;;;;4.25;4.25;;;;;;;;5079151;28;45500;-74
2023/08/29 11:07:04;;;;;;;;;4.00;4.00;;;;;;;;5074010;28;45276;-73
2023/08/29 11:09:30;;;;;;;;;5.50;5.50;;;;;;;;5064833;28;45269;-74
2023/08/29 11:12:06;;;;;;;;;6.75;5.75;;;;;;;;5050718;28;45674;-73
2023/08/29 11:14:53;;;;;;;;;6.25;6.25;;;;;;;;5025984;28;45381;-74
2023/08/29 11:17:25;;;;;;;;;7.00;6.50;;;;;;;;5058652;28;45458;-74
2023/08/29 11:19:51;;;;;;;;;10.67;10.67;;;;;;;;5058703;28;46148;-74
2023/08/29 11:22:17;;;;;;;;;4.75;4.50;;;;;;;;5043516;28;45310;-74
2023/08/29 11:24:42;;;;;;;;;4.75;3.75;;;;;;;;5063419;28;45284;-75
2023/08/29 11:27:08;;;;;;;;;5.25;4.00;;;;;;;;5061931;28;45537;-77
2023/08/29 11:29:36;;;;;;;;;6.25;6.00;;;;;;;;5054517;27;47353;-75
2023/08/29 11:32:02;;;;;;;;;5.00;5.00;;;;;;;;5078635;28;45406;-74
2023/08/29 11:34:27;;;;;;;;;4.75;4.75;;;;;;;;5077595;28;45384;-74
2023/08/29 11:36:53;;;;;;;;;6.25;6.25;;;;;;;;5063593;28;46137;-75
2023/08/29 11:39:21;;;;;;;;;4.25;4.25;;;;;;;;5081561;28;46167;-77
2023/08/29 11:41:46;;;;;;;;;6.25;5.00;;;;;;;;5064714;28;45298;-76
2023/08/29 11:44:12;;;;;;;;;5.75;4.25;;;;;;;;5081498;28;45424;-74
2023/08/29 11:46:37;;;;;;;;;5.25;5.00;;;;;;;;5083061;28;45513;-74
2023/08/29 11:49:12;;;;;;;;;5.00;5.00;;;;;;;;5082113;28;45389;-74
2023/08/29 11:51:39;;;;;;;;;4.00;4.00;;;;;;;;5063446;28;45641;-74
2023/08/29 11:54:04;;;;;;;;;5.25;5.25;;;;;;;;5080015;27;45501;-76
2023/08/29 11:56:29;;;;;;;;;4.00;4.00;;;;;;;;5061106;27;45427;-74
2023/08/29 11:58:56;;;;;;;;;5.00;5.00;;;;;;;;5062316;27;45407;-74
2023/08/29 12:01:22;;;;;;;;;4.75;3.00;;;;;;;;5068677;27;45395;-75
2023/08/29 12:03:49;;;;;;;;;6.75;6.75;;;;;;;;5068717;27;45392;-75
2023/08/29 12:06:14;;;;;;;;;6.00;5.25;;;;;;;;5062137;27;45453;-77
2023/08/29 12:08:40;;;;;;;;;4.33;4.00;;;;;;;;5062505;27;45487;-76
2023/08/29 12:11:06;;;;;;;;;5.75;5.25;;;;;;;;5066273;27;45423;-73
2023/08/29 12:13:32;;;;;;;;;7.67;6.00;;;;;;;;5065996;27;45417;-74
2023/08/29 12:15:57;;;;;;;;;5.75;5.75;;;;;;;;5065152;27;45491;-75
2023/08/29 12:18:23;;;;;;;;;6.75;6.00;;;;;;;;5071501;27;45347;-75
2023/08/29 12:20:49;;;;;;;;;4.25;4.25;;;;;;;;5042466;28;45355;-74
2023/08/29 12:23:22;;;;;;;;;6.50;6.00;;;;;;;;5063477;27;45465;-74
2023/08/29 12:25:48;;;;;;;;;5.25;5.25;;;;;;;;5066635;27;45351;-74
2023/08/29 12:28:13;;;;;;;;;5.33;5.33;;;;;;;;5061736;27;46668;-75
2023/08/29 12:30:38;;;;;;;;;6.67;6.00;;;;;;;;5065255;28;45571;-74
2023/08/29 12:33:04;;;;;;;;;5.00;5.00;;;;;;;;5067014;27;45310;-74
2023/08/29 12:35:29;;;;;;;;;5.00;5.00;;;;;;;;5051080;28;46962;-77
2023/08/29 12:37:54;;;;;;;;;5.00;5.00;;;;;;;;5048056;28;46902;-77
2023/08/29 12:40:19;;;;;;;;;6.67;6.67;;;;;;;;5048463;27;45544;-78
2023/08/29 12:42:47;;;;;;;;;7.00;7.00;;;;;;;;5070615;27;45459;-75
2023/08/29 12:45:12;;;;;;;;;7.00;7.00;;;;;;;;5071530;27;45505;-74
2023/08/29 12:47:37;;;;;;;;;7.00;7.00;;;;;;;;5072823;27;45835;-75
2023/08/29 12:50:03;;;;;;;;;6.33;6.33;;;;;;;;5072312;27;45402;-75
2023/08/29 12:52:28;;;;;;;;;7.67;6.00;;;;;;;;5069115;27;45733;-75
2023/08/29 12:54:53;;;;;;;;;7.00;6.00;;;;;;;;5050790;28;47330;-74
2023/08/29 12:57:18;;;;;;;;;6.67;6.67;;;;;;;;5049544;28;48048;-74
2023/08/29 12:59:44;;;;;;;;;9.00;7.67;;;;;;;;5065458;28;45496;-76
2023/08/29 13:02:10;;;;;;;;;7.67;7.67;;;;;;;;5065348;28;46128;-74
2023/08/29 13:04:35;;;;;;;;;8.00;8.00;;;;;;;;5060444;28;45328;-75
2023/08/29 13:07:00;;;;;;;;;7.33;5.67;;;;;;;;5042157;28;46901;-73
2023/08/29 13:09:25;;;;;;;;;6.67;6.67;;;;;;;;5070457;27;45331;-75
2023/08/29 13:11:50;;;;;;;;;6.00;6.00;;;;;;;;5077554;27;45244;-74
2023/08/29 13:14:15;;;;;;;;;6.33;6.33;;;;;;;;5071908;27;45385;-76
2023/08/29 13:16:41;;;;;;;;;5.33;5.00;;;;;;;;5071812;27;46285;-74
2023/08/29 13:19:06;;;;;;;;;8.33;7.00;;;;;;;;5061695;27;45472;-74
2023/08/29 13:21:31;;;;;;;;;8.67;7.00;;;;;;;;5074051;27;45524;-74
2023/08/29 13:23:57;;;;;;;;;6.33;6.33;;;;;;;;5080214;28;45477;-74
2023/08/29 13:26:22;;;;;;;;;7.00;7.00;;;;;;;;5080792;28;46081;-75
2023/08/29 13:28:48;;;;;;;;;7.00;6.00;;;;;;;;5063803;28;45299;-75
2023/08/29 13:31:16;;;;;;;;;5.00;5.00;;;;;;;;5078547;28;45162;-73
2023/08/29 13:33:42;;;;;;;;;6.00;6.00;;;;;;;;5078229;28;45490;-76
2023/08/29 13:36:07;;;;;;;;;6.67;5.00;;;;;;;;5082626;28;45404;-75
2023/08/29 13:38:32;;;;;;;;;7.67;7.00;;;;;;;;5083531;28;45316;-76
2023/08/29 13:40:57;;;;;;;;;7.00;7.00;;;;;;;;5062230;28;45412;-74
2023/08/29 13:43:23;;;;;;;;;6.00;6.00;;;;;;;;5079623;28;45328;-78
2023/08/29 13:45:48;;;;;;;;;8.33;7.33;;;;;;;;5061709;28;47059;-73
2023/08/29 13:48:13;;;;;;;;;9.00;6.75;;;;;;;;5080289;28;45283;-74
2023/08/29 13:50:39;;;;;;;;;6.00;6.00;;;;;;;;5062559;28;45265;-77
2023/08/29 13:53:05;;;;;;;;;6.00;6.00;;;;;;;;5081798;28;45348;-74
2023/08/29 13:55:30;;;;;;;;;6.33;6.33;;;;;;;;5079873;28;46048;-74
2023/08/29 13:57:56;;;;;;;;;6.00;6.00;;;;;;;;5080254;28;45149;-74
2023/08/29 14:00:24;;;;;;;;;6.00;6.00;;;;;;;;5080233;28;45181;-73
2023/08/29 14:02:50;;;;;;;;;8.00;8.00;;;;;;;;5080198;28;45318;-73
2023/08/29 14:05:15;;;;;;;;;7.00;7.00;;;;;;;;5079623;28;45652;-74
2023/08/29 14:07:40;;;;;;;;;6.00;6.00;;;;;;;;5080122;28;45425;-73
2023/08/29 14:10:06;;;;;;;;;8.33;8.00;;;;;;;;5080196;28;45491;-74
2023/08/29 14:12:31;;;;;;;;;8.00;8.00;;;;;;;;5079636;28;45328;-74
2023/08/29 14:14:56;;;;;;;;;7.67;7.67;;;;;;;;5079749;28;46119;-73
2023/08/29 14:17:22;;;;;;;;;8.00;8.00;;;;;;;;5079782;28;45319;-74
2023/08/29 14:19:47;;;;;;;;;8.67;7.67;;;;;;;;5041381;28;45354;-74
2023/08/29 14:22:12;;;;;;;;;6.75;6.75;;;;;;;;5042520;28;46149;-74
2023/08/29 14:24:37;;;;;;;;;6.00;6.00;;;;;;;;5041243;28;47255;-74
2023/08/29 14:27:02;;;;;;;;;6.00;6.00;;;;;;;;5059277;28;45296;-74
2023/08/29 14:29:28;;;;;;;;;6.33;6.33;;;;;;;;5079133;27;45495;-73